createdAt,value
2019-04-06T00:00:13.097Z,98.01
2019-04-06T00:02:41.737Z,98.12
2019-04-06T00:05:11.099Z,98.21
2019-04-06T00:07:39.678Z,98.14
2019-04-06T00:10:08.648Z,98.17
2019-04-06T00:12:37.401Z,98.25
2019-04-06T00:15:07.723Z,98.26
2019-04-06T00:17:36.290Z,98.11
2019-04-06T00:20:06.607Z,98.07
2019-04-06T00:22:35.190Z,98.05
2019-04-06T00:25:04.786Z,98.11
2019-04-06T00:27:33.383Z,98.01
2019-04-06T00:30:01.990Z,97.88
2019-04-06T00:32:38.196Z,97.98
2019-04-06T00:35:07.005Z,98.10
2019-04-06T00:37:36.299Z,98.04
2019-04-06T00:40:05.649Z,97.95
2019-04-06T00:42:34.290Z,97.94
2019-04-06T00:45:03.255Z,98.10
2019-04-06T00:47:31.980Z,98.02
2019-04-06T00:50:00.568Z,98.05
2019-04-06T00:52:29.254Z,98.21
2019-04-06T00:54:57.948Z,98.23
2019-04-06T00:57:26.546Z,98.17
2019-04-06T00:59:55.169Z,98.24
2019-04-06T01:02:23.853Z,98.10
2019-04-06T01:04:52.416Z,98.24
2019-04-06T01:07:23.172Z,98.26
2019-04-06T01:09:51.729Z,98.19
2019-04-06T01:12:20.438Z,98.28
2019-04-06T01:14:49.390Z,98.20
2019-04-06T01:17:18.052Z,98.34
2019-04-06T01:19:47.025Z,98.24
2019-04-06T01:22:15.763Z,98.12
2019-04-06T01:24:44.419Z,98.11
2019-04-06T01:27:13.045Z,98.23
2019-04-06T01:29:41.616Z,98.26
2019-04-06T01:32:10.185Z,98.25
2019-04-06T01:34:38.909Z,98.21
2019-04-06T01:37:07.484Z,98.22
2019-04-06T01:39:36.065Z,98.16
2019-04-06T01:42:04.708Z,98.21
2019-04-06T01:44:33.347Z,98.32
2019-04-06T01:47:01.927Z,98.25
2019-04-06T01:49:30.503Z,98.38
2019-04-06T01:51:59.148Z,98.27
2019-04-06T01:54:27.727Z,98.27
2019-04-06T01:56:56.576Z,98.22
2019-04-06T01:59:25.179Z,98.42
2019-04-06T02:01:55.414Z,98.49
2019-04-06T02:04:24.033Z,98.54
2019-04-06T02:06:52.536Z,98.55
2019-04-06T02:09:21.278Z,98.36
2019-04-06T02:11:49.861Z,98.33
2019-04-06T02:14:18.522Z,98.43
2019-04-06T02:16:47.543Z,98.59
2019-04-06T02:19:16.177Z,98.38
2019-04-06T02:21:44.881Z,98.33
2019-04-06T02:24:13.435Z,98.37
2019-04-06T02:26:42.014Z,98.44
2019-04-06T02:29:10.778Z,98.65
2019-04-06T02:31:56.022Z,98.65
2019-04-06T02:34:29.373Z,98.60
2019-04-06T02:37:02.515Z,98.57
2019-04-06T02:39:38.760Z,98.68
2019-04-06T02:42:18.309Z,98.64
2019-04-06T02:44:46.946Z,98.62
2019-04-06T02:47:15.763Z,98.61
2019-04-06T02:49:44.657Z,98.76
2019-04-06T02:52:13.275Z,98.68
2019-04-06T02:54:41.888Z,98.71
2019-04-06T02:57:10.508Z,98.79
2019-04-06T02:59:39.340Z,99.14
2019-04-06T03:02:08.288Z,98.91
2019-04-06T03:04:36.872Z,98.97
2019-04-06T03:07:05.699Z,99.22
2019-04-06T03:09:34.396Z,98.95
2019-04-06T03:12:03.059Z,99.02
2019-04-06T03:14:32.038Z,99.24
2019-04-06T03:17:00.748Z,99.24
2019-04-06T03:19:29.445Z,99.04
2019-04-06T03:21:58.046Z,99.29
2019-04-06T03:24:26.914Z,99.14
2019-04-06T03:27:01.970Z,99.18
2019-04-06T03:29:26.095Z,99.12
2019-04-06T03:31:54.713Z,99.39
2019-04-06T03:34:23.490Z,99.38
2019-04-06T03:36:52.288Z,99.31
2019-04-06T03:39:20.858Z,99.58
2019-04-06T03:41:49.511Z,99.63
2019-04-06T03:44:18.745Z,99.41
2019-04-06T03:46:47.418Z,99.24
2019-04-06T03:49:16.169Z,99.14
2019-04-06T03:51:45.007Z,98.98
2019-04-06T03:54:13.635Z,99.36
2019-04-06T03:56:42.430Z,99.25
2019-04-06T03:59:11.226Z,99.47
2019-04-06T04:01:40.849Z,99.61
2019-04-06T04:04:09.403Z,99.79
2019-04-06T04:06:38.089Z,99.95
2019-04-06T04:09:06.869Z,100.00
2019-04-06T04:11:35.531Z,100.00
2019-04-06T04:14:04.256Z,100.00
2019-04-06T04:16:32.828Z,100.00
2019-04-06T04:19:01.530Z,100.00
2019-04-06T04:21:30.255Z,100.00
2019-04-06T04:23:59.342Z,100.00
2019-04-06T04:26:28.008Z,100.00
2019-04-06T04:28:56.588Z,100.00
2019-04-06T04:31:25.465Z,100.00
2019-04-06T04:33:54.081Z,100.00
2019-04-06T04:36:22.667Z,100.00
2019-04-06T04:38:51.473Z,100.00
2019-04-06T04:41:20.340Z,100.00
2019-04-06T04:43:49.107Z,100.00
2019-04-06T04:46:17.702Z,100.00
2019-04-06T04:48:46.420Z,100.00
2019-04-06T04:51:15.033Z,100.00
2019-04-06T04:53:43.784Z,100.00
2019-04-06T04:56:12.710Z,100.00
2019-04-06T04:58:42.614Z,100.00
2019-04-06T05:01:11.218Z,100.00
2019-04-06T05:03:40.099Z,100.00
2019-04-06T05:06:08.729Z,100.00
2019-04-06T05:08:37.344Z,100.00
2019-04-06T05:11:06.028Z,100.00
2019-04-06T05:13:34.627Z,100.00
2019-04-06T05:16:14.553Z,100.00
2019-04-06T05:18:43.630Z,100.00
2019-04-06T05:21:12.953Z,100.00
2019-04-06T05:23:41.643Z,100.00
2019-04-06T05:26:10.421Z,100.00
2019-04-06T05:28:39.429Z,100.00
2019-04-06T05:31:08.009Z,100.00
2019-04-06T05:33:36.589Z,100.00
2019-04-06T05:36:05.953Z,100.00
2019-04-06T05:38:34.827Z,100.00
2019-04-06T05:41:03.477Z,100.00
2019-04-06T05:43:32.419Z,100.00
2019-04-06T05:46:01.011Z,100.00
2019-04-06T05:48:29.614Z,100.00
2019-04-06T05:50:58.485Z,100.00
2019-04-06T05:53:27.092Z,100.00
2019-04-06T05:55:55.969Z,100.00
2019-04-06T05:58:24.714Z,99.96
2019-04-06T06:00:53.289Z,99.89
2019-04-06T06:03:21.890Z,99.89
2019-04-06T06:05:51.144Z,99.76
2019-04-06T06:08:19.931Z,99.71
2019-04-06T06:10:48.743Z,99.65
2019-04-06T06:13:17.327Z,99.61
2019-04-06T06:15:45.937Z,99.58
2019-04-06T06:18:25.387Z,99.47
2019-04-06T06:20:44.839Z,99.45
2019-04-06T06:23:13.425Z,99.36
2019-04-06T06:25:42.258Z,99.29
2019-04-06T06:28:14.990Z,99.22
2019-04-06T06:30:41.223Z,99.09
2019-04-06T06:33:10.044Z,98.98
2019-04-06T06:35:38.743Z,98.92
2019-04-06T06:38:07.436Z,98.71
2019-04-06T06:40:36.020Z,98.62
2019-04-06T06:43:04.749Z,98.46
2019-04-06T06:45:33.727Z,98.34
2019-04-06T06:48:02.374Z,98.20
2019-04-06T06:50:31.049Z,98.12
2019-04-06T06:52:59.658Z,98.03
2019-04-06T06:55:28.247Z,97.97
2019-04-06T06:57:57.595Z,97.84
2019-04-06T07:00:26.195Z,97.69
2019-04-06T07:02:54.869Z,97.65
2019-04-06T07:05:23.642Z,97.49
2019-04-06T07:07:52.474Z,97.26
2019-04-06T07:10:21.069Z,97.33
2019-04-06T07:12:49.648Z,97.15
2019-04-06T07:15:18.232Z,96.95
2019-04-06T07:17:47.091Z,96.78
2019-04-06T07:20:16.064Z,96.43
2019-04-06T07:22:44.628Z,96.33
2019-04-06T07:25:13.706Z,96.13
2019-04-06T07:27:42.740Z,95.62
2019-04-06T07:30:12.108Z,95.40
2019-04-06T07:32:40.886Z,95.18
2019-04-06T07:35:09.892Z,95.05
2019-04-06T07:37:38.681Z,94.48
2019-04-06T07:40:10.837Z,94.29
2019-04-06T07:42:39.372Z,94.20
2019-04-06T07:45:09.356Z,94.06
2019-04-06T07:47:38.092Z,94.06
2019-04-06T07:50:07.711Z,93.51
2019-04-06T07:52:36.422Z,93.26
2019-04-06T07:55:07.237Z,93.32
2019-04-06T07:57:36.171Z,93.48
2019-04-06T08:00:08.445Z,93.11
2019-04-06T08:02:37.233Z,93.01
2019-04-06T08:05:07.533Z,92.92
2019-04-06T08:07:36.694Z,92.66
2019-04-06T08:10:06.408Z,92.06
2019-04-06T08:12:35.206Z,91.52
2019-04-06T08:15:05.447Z,91.28
2019-04-06T08:17:34.091Z,91.01
2019-04-06T08:20:03.268Z,90.62
2019-04-06T08:22:31.914Z,90.17
2019-04-06T08:25:00.496Z,90.23
2019-04-06T08:27:29.274Z,89.57
2019-04-06T08:29:58.063Z,89.21
2019-04-06T08:32:26.782Z,88.49
2019-04-06T08:34:55.403Z,88.16
2019-04-06T08:37:23.983Z,87.46
2019-04-06T08:39:52.651Z,87.42
2019-04-06T08:42:21.191Z,86.97
2019-04-06T08:44:50.464Z,86.16
2019-04-06T08:47:19.638Z,85.50
2019-04-06T08:49:48.306Z,85.09
2019-04-06T08:52:16.961Z,84.47
2019-04-06T08:54:47.288Z,84.08
2019-04-06T08:57:16.474Z,83.33
2019-04-06T08:59:45.396Z,82.90
2019-04-06T09:02:14.197Z,82.14
2019-04-06T09:04:44.130Z,81.86
2019-04-06T09:07:12.745Z,81.17
2019-04-06T09:09:42.287Z,80.90
2019-04-06T09:12:11.275Z,80.04
2019-04-06T09:14:39.881Z,79.24
2019-04-06T09:17:08.628Z,78.14
2019-04-06T09:19:41.255Z,77.85
2019-04-06T09:22:09.861Z,77.33
2019-04-06T09:24:40.518Z,76.27
2019-04-06T09:27:18.398Z,74.92
2019-04-06T09:29:47.029Z,73.50
2019-04-06T09:32:15.714Z,72.55
2019-04-06T09:34:52.104Z,71.76
2019-04-06T09:37:21.019Z,69.75
2019-04-06T09:39:50.569Z,68.18
2019-04-06T09:42:20.006Z,67.72
2019-04-06T09:44:50.259Z,67.00
2019-04-06T09:47:24.009Z,66.02
2019-04-06T09:50:10.374Z,66.02
2019-04-06T09:52:43.721Z,65.03
2019-04-06T09:55:42.984Z,64.04
2019-04-06T09:58:29.418Z,62.05
2019-04-06T10:01:01.147Z,61.92
2019-04-06T10:03:34.420Z,61.82
2019-04-06T10:06:16.781Z,60.94
2019-04-06T10:08:56.604Z,61.66
2019-04-06T10:11:28.021Z,61.91
2019-04-06T10:13:59.680Z,62.39
2019-04-06T10:16:35.001Z,63.03
2019-04-06T10:19:06.575Z,63.86
2019-04-06T10:21:48.646Z,64.35
2019-04-06T10:24:19.738Z,64.26
2019-04-06T10:27:03.809Z,64.21
2019-04-06T10:29:47.611Z,64.50
2019-04-06T10:32:18.763Z,65.55
2019-04-06T10:34:49.029Z,65.85
2019-04-06T10:37:21.774Z,64.90
2019-04-06T10:40:04.032Z,65.17
2019-04-06T10:42:38.677Z,64.66
2019-04-06T10:45:12.465Z,64.67
2019-04-06T10:47:58.063Z,63.64
2019-04-06T10:50:28.481Z,63.38
2019-04-06T10:53:01.308Z,62.84
2019-04-06T10:55:34.447Z,62.39
2019-04-06T10:58:15.236Z,62.08
2019-04-06T11:01:01.870Z,61.73
2019-04-06T11:03:38.274Z,61.56
2019-04-06T11:06:08.497Z,61.49
2019-04-06T11:08:41.841Z,61.84
2019-04-06T11:11:28.802Z,62.44
2019-04-06T11:14:05.012Z,62.32
2019-04-06T11:16:35.233Z,62.06
2019-04-06T11:19:05.896Z,62.34
2019-04-06T11:21:44.868Z,61.97
2019-04-06T11:24:26.393Z,62.21
2019-04-06T11:26:56.840Z,61.93
2019-04-06T11:29:29.693Z,61.92
2019-04-06T11:32:06.860Z,62.22
2019-04-06T11:34:48.931Z,62.13
2019-04-06T11:37:33.319Z,61.65
2019-04-06T11:40:06.163Z,61.74
2019-04-06T11:42:48.417Z,61.22
2019-04-06T11:45:18.626Z,60.62
2019-04-06T11:47:54.760Z,60.42
2019-04-06T11:50:25.172Z,60.23
2019-04-06T11:53:10.310Z,60.81
2019-04-06T11:55:40.555Z,61.08
2019-04-06T11:58:23.007Z,61.49
2019-04-06T12:00:56.077Z,61.13
2019-04-06T12:03:35.295Z,61.31
2019-04-06T12:06:20.643Z,61.73
2019-04-06T12:09:08.869Z,62.18
2019-04-06T12:11:39.603Z,62.21
2019-04-06T12:14:22.187Z,62.79
2019-04-06T12:16:58.738Z,62.67
2019-04-06T12:19:38.303Z,62.86
2019-04-06T12:22:20.914Z,62.88
2019-04-06T12:24:59.940Z,62.52
2019-04-06T12:27:46.539Z,62.23
2019-04-06T12:30:23.378Z,62.30
2019-04-06T12:33:10.584Z,62.72
2019-04-06T12:35:43.571Z,62.86
2019-04-06T12:38:30.758Z,62.69
2019-04-06T12:41:14.001Z,62.69
2019-04-06T12:44:00.392Z,62.14
2019-04-06T12:46:33.513Z,61.78
2019-04-06T12:49:06.582Z,60.82
2019-04-06T12:51:55.510Z,60.14
2019-04-06T12:54:44.587Z,59.58
2019-04-06T12:57:32.077Z,59.51
2019-04-06T13:00:03.610Z,58.13
2019-04-06T13:02:51.093Z,57.69
2019-04-06T13:05:33.690Z,57.59
2019-04-06T13:08:06.711Z,57.85
2019-04-06T13:10:38.383Z,57.94
2019-04-06T13:13:11.456Z,58.82
2019-04-06T13:15:57.535Z,59.08
2019-04-06T13:18:31.571Z,58.12
2019-04-06T13:21:07.917Z,58.12
2019-04-06T13:23:53.216Z,58.01
2019-04-06T13:26:33.118Z,57.92
2019-04-06T13:29:10.361Z,57.87
2019-04-06T13:31:53.291Z,57.77
2019-04-06T13:34:24.278Z,57.77
2019-04-06T13:37:00.259Z,58.11
2019-04-06T13:39:30.828Z,58.47
2019-04-06T13:42:03.653Z,58.18
2019-04-06T13:44:50.982Z,58.83
2019-04-06T13:47:21.211Z,58.95
2019-04-06T13:50:04.390Z,58.30
2019-04-06T13:52:49.638Z,57.79
2019-04-06T13:55:36.336Z,57.72
2019-04-06T13:58:07.673Z,57.34
2019-04-06T14:00:57.819Z,57.22
2019-04-06T14:03:28.121Z,56.65
2019-04-06T14:06:14.321Z,56.69
2019-04-06T14:08:48.774Z,56.84
2019-04-06T14:11:35.378Z,57.31
2019-04-06T14:14:18.905Z,57.21
2019-04-06T14:16:50.603Z,56.74
2019-04-06T14:19:20.718Z,57.26
2019-04-06T14:22:07.566Z,57.55
2019-04-06T14:24:53.733Z,57.48
2019-04-06T14:27:30.161Z,57.59
2019-04-06T14:30:07.001Z,57.84
2019-04-06T14:32:55.134Z,58.01
2019-04-06T14:35:25.748Z,58.17
2019-04-06T14:38:12.304Z,57.92
2019-04-06T14:40:54.789Z,58.15
2019-04-06T14:43:29.062Z,57.71
2019-04-06T14:46:00.468Z,57.80
2019-04-06T14:48:33.794Z,59.13
2019-04-06T14:51:19.485Z,59.62
2019-04-06T14:53:53.681Z,59.09
2019-04-06T14:56:40.477Z,59.06
2019-04-06T14:59:21.424Z,58.23
2019-04-06T15:02:10.393Z,57.86
2019-04-06T15:04:55.733Z,58.85
2019-04-06T15:07:34.971Z,59.18
2019-04-06T15:10:18.730Z,58.89
2019-04-06T15:12:49.010Z,59.51
2019-04-06T15:15:19.898Z,60.02
2019-04-06T15:17:56.856Z,60.20
2019-04-06T15:20:27.107Z,60.58
2019-04-06T15:23:13.551Z,61.05
2019-04-06T15:25:45.929Z,61.54
2019-04-06T15:28:34.398Z,61.98
2019-04-06T15:31:13.905Z,62.38
2019-04-06T15:33:47.059Z,62.87
2019-04-06T15:36:23.205Z,62.87
2019-04-06T15:38:54.448Z,63.26
2019-04-06T15:41:36.615Z,63.56
2019-04-06T15:44:07.479Z,63.62
2019-04-06T15:46:41.461Z,63.79
2019-04-06T15:49:14.887Z,64.39
2019-04-06T15:52:10.602Z,63.96
2019-04-06T15:54:48.015Z,63.98
2019-04-06T15:57:24.512Z,64.19
2019-04-06T15:59:54.734Z,64.08
2019-04-06T16:02:37.138Z,63.72
2019-04-06T16:05:09.374Z,63.94
2019-04-06T16:07:39.604Z,63.92
2019-04-06T16:10:10.143Z,63.71
2019-04-06T16:12:40.365Z,63.94
2019-04-06T16:15:11.245Z,64.07
2019-04-06T16:17:41.477Z,64.37
2019-04-06T16:20:14.676Z,64.74
2019-04-06T16:22:52.937Z,65.28
2019-04-06T16:25:30.409Z,65.54
2019-04-06T16:28:07.045Z,65.56
2019-04-06T16:30:42.811Z,65.77
2019-04-06T16:33:16.161Z,66.12
2019-04-06T16:35:55.941Z,66.07
2019-04-06T16:38:38.832Z,66.29
2019-04-06T16:41:15.258Z,66.63
2019-04-06T16:43:46.160Z,66.54
2019-04-06T16:46:31.612Z,66.48
2019-04-06T16:49:07.793Z,66.68
2019-04-06T16:51:54.209Z,66.62
2019-04-06T16:54:31.472Z,66.58
2019-04-06T16:57:20.081Z,66.79
2019-04-06T17:00:17.079Z,67.05
2019-04-06T17:02:55.128Z,67.17
2019-04-06T17:05:34.941Z,67.27
2019-04-06T17:08:14.115Z,67.44
2019-04-06T17:10:48.307Z,67.37
2019-04-06T17:13:28.444Z,67.63
2019-04-06T17:16:01.824Z,67.76
2019-04-06T17:18:48.656Z,68.05
2019-04-06T17:21:22.098Z,68.32
2019-04-06T17:24:10.217Z,68.71
2019-04-06T17:26:41.136Z,69.08
2019-04-06T17:29:17.523Z,69.50
2019-04-06T17:31:50.832Z,69.86
2019-04-06T17:34:36.202Z,70.23
2019-04-06T17:37:16.056Z,70.65
2019-04-06T17:39:46.282Z,70.96
2019-04-06T17:42:23.443Z,71.42
2019-04-06T17:44:54.443Z,71.94
2019-04-06T17:47:41.199Z,72.20
2019-04-06T17:50:20.222Z,72.59
2019-04-06T17:53:07.203Z,73.12
2019-04-06T17:55:43.051Z,73.35
2019-04-06T17:58:18.939Z,73.80
2019-04-06T18:01:01.032Z,74.21
2019-04-06T18:03:47.812Z,74.34
2019-04-06T18:06:22.010Z,74.43
2019-04-06T18:08:58.108Z,74.61
2019-04-06T18:11:28.306Z,76.12
2019-04-06T18:13:57.551Z,74.96
2019-04-06T18:16:30.038Z,75.14
2019-04-06T18:18:58.785Z,75.33
2019-04-06T18:21:27.965Z,75.50
2019-04-06T18:23:56.599Z,75.79
2019-04-06T18:26:26.008Z,75.91
2019-04-06T18:28:55.141Z,76.13
2019-04-06T18:31:33.961Z,76.20
2019-04-06T18:34:02.755Z,76.41
2019-04-06T18:36:51.125Z,76.55
2019-04-06T18:39:20.699Z,76.62
2019-04-06T18:41:49.287Z,76.76
2019-04-06T18:44:17.977Z,76.86
2019-04-06T18:46:46.560Z,76.96
2019-04-06T18:49:15.139Z,77.00
2019-04-06T18:51:43.919Z,77.02
2019-04-06T18:54:12.997Z,77.29
2019-04-06T18:56:42.297Z,77.33
2019-04-06T18:59:11.437Z,77.47
2019-04-06T19:01:40.415Z,77.56
2019-04-06T19:04:09.089Z,77.64
2019-04-06T19:06:38.494Z,77.76
2019-04-06T19:09:20.711Z,77.89
2019-04-06T19:11:39.380Z,77.83
2019-04-06T19:14:07.998Z,78.08
2019-04-06T19:16:36.694Z,78.17
2019-04-06T19:19:06.101Z,78.30
2019-04-06T19:21:35.042Z,78.46
2019-04-06T19:24:03.658Z,78.58
2019-04-06T19:26:33.861Z,78.73
2019-04-06T19:29:02.797Z,78.64
2019-04-06T19:31:31.746Z,78.66
2019-04-06T19:34:00.518Z,78.61
2019-04-06T19:36:29.534Z,78.58
2019-04-06T19:38:58.212Z,78.66
2019-04-06T19:41:27.155Z,78.65
2019-04-06T19:43:55.727Z,78.55
2019-04-06T19:46:24.747Z,78.63
2019-04-06T19:48:53.395Z,78.67
2019-04-06T19:51:21.984Z,78.85
2019-04-06T19:53:51.158Z,78.88
2019-04-06T19:56:20.093Z,78.87
2019-04-06T19:58:49.287Z,79.12
2019-04-06T20:01:17.958Z,79.26
2019-04-06T20:03:46.696Z,79.48
2019-04-06T20:06:15.536Z,79.64
2019-04-06T20:08:44.183Z,79.73
2019-04-06T20:11:12.861Z,79.70
2019-04-06T20:13:41.673Z,79.87
2019-04-06T20:16:10.887Z,79.92
2019-04-06T20:18:40.152Z,80.08
2019-04-06T20:21:09.799Z,80.15
2019-04-06T20:23:39.039Z,80.33
2019-04-06T20:26:09.097Z,80.29
2019-04-06T20:28:39.025Z,80.37
2019-04-06T20:31:08.225Z,80.49
2019-04-06T20:33:46.798Z,80.50
2019-04-06T20:36:07.380Z,80.52
2019-04-06T20:38:36.034Z,80.67
2019-04-06T20:41:05.245Z,80.72
2019-04-06T20:43:34.228Z,80.82
2019-04-06T20:46:03.050Z,80.91
2019-04-06T20:48:31.704Z,81.04
2019-04-06T20:51:00.416Z,80.95
2019-04-06T20:53:28.996Z,81.10
2019-04-06T20:55:57.702Z,81.20
2019-04-06T20:58:26.322Z,81.20
2019-04-06T21:00:55.476Z,81.25
2019-04-06T21:03:24.331Z,81.38
2019-04-06T21:05:53.089Z,81.48
2019-04-06T21:08:21.828Z,81.54
2019-04-06T21:10:50.900Z,81.59
2019-04-06T21:13:20.139Z,81.82
2019-04-06T21:15:48.928Z,81.92
2019-04-06T21:18:17.807Z,82.00
2019-04-06T21:20:48.045Z,81.98
2019-04-06T21:23:17.203Z,82.04
2019-04-06T21:25:46.480Z,81.97
2019-04-06T21:28:15.452Z,81.94
2019-04-06T21:30:44.341Z,81.83
2019-04-06T21:33:13.231Z,81.91
2019-04-06T21:35:42.434Z,81.81
2019-04-06T21:38:12.179Z,81.78
2019-04-06T21:40:41.099Z,81.71
2019-04-06T21:43:09.999Z,81.67
2019-04-06T21:45:39.325Z,81.57
2019-04-06T21:48:08.013Z,81.51
2019-04-06T21:50:36.687Z,81.50
2019-04-06T21:53:05.274Z,81.51
2019-04-06T21:55:33.914Z,81.56
2019-04-06T21:58:03.026Z,81.58
2019-04-06T22:00:50.062Z,81.64
2019-04-06T22:03:19.037Z,81.57
2019-04-06T22:05:47.936Z,81.52
2019-04-06T22:08:16.539Z,81.60
2019-04-06T22:10:45.876Z,81.78
2019-04-06T22:13:15.999Z,81.98
2019-04-06T22:15:45.049Z,82.01
2019-04-06T22:18:14.195Z,82.09
2019-04-06T22:20:43.757Z,82.15
2019-04-06T22:23:13.105Z,82.11
2019-04-06T22:25:42.178Z,82.14
2019-04-06T22:28:10.941Z,82.28
2019-04-06T22:30:40.512Z,82.38
2019-04-06T22:33:09.273Z,82.28
2019-04-06T22:35:39.004Z,82.31
2019-04-06T22:38:08.119Z,82.35
2019-04-06T22:40:37.063Z,82.46
2019-04-06T22:43:05.886Z,82.55
2019-04-06T22:45:35.048Z,82.66
2019-04-06T22:48:03.737Z,82.66
2019-04-06T22:50:32.693Z,82.71
2019-04-06T22:53:01.353Z,82.67
2019-04-06T22:55:29.957Z,82.61
2019-04-06T22:57:58.773Z,82.53
2019-04-06T23:00:32.109Z,82.54
2019-04-06T23:03:05.427Z,82.42
2019-04-06T23:05:47.970Z,82.33
2019-04-06T23:08:16.830Z,82.30
2019-04-06T23:10:45.688Z,82.15
2019-04-06T23:13:15.040Z,82.14
2019-04-06T23:15:43.959Z,82.17
2019-04-06T23:18:12.848Z,82.23
2019-04-06T23:20:41.553Z,82.11
2019-04-06T23:23:10.371Z,81.95
2019-04-06T23:25:39.612Z,81.80
2019-04-06T23:28:08.257Z,81.76
2019-04-06T23:30:37.562Z,81.69
2019-04-06T23:33:06.638Z,81.56
2019-04-06T23:35:35.768Z,81.42
2019-04-06T23:38:04.321Z,81.46
2019-04-06T23:40:33.040Z,81.41
2019-04-06T23:43:02.817Z,81.21
2019-04-06T23:45:31.931Z,81.08
2019-04-06T23:48:01.605Z,80.99
2019-04-06T23:50:31.440Z,80.85
2019-04-06T23:53:00.706Z,80.66
2019-04-06T23:55:30.018Z,80.64
2019-04-06T23:57:59.529Z,80.51
